Main page
METAR-TAF:

METAR-TAF

Airports :

Moss Airport. Rygge

Rygge, Norway

latitude: 59-23N, longitude: 010-47E, elevation: 5 m

Current weather observation

The report was made 42 minutes ago, at 16:50 UTC
Wind 12 kt from the South/Southwest
Temperature 18°C
Humidity 64%
Pressure 1013 hPa
Visibility 10 km or more
no clouds below 1500 m and no cumulonimbus

METAR: ENRY 211650Z 21012KT CAVOK 18/11 Q1013

Time: 19:32 (17:32 UTC)

Forecast

The report was made 6 hours and 32 minutes ago, at 11:00 UTC
Forecast valid from 21 at 12 UTC to 22 at 12 UTC
Wind 10 kt from the South/Southwest
Visibility 10 km or more
no clouds below 1500 m and no cumulonimbus
Becoming
from 21 at 21 UTC to 21 at 23 UTC
Wind 5 kt from the North/Northeast
Temporary
from 22 at 09 UTC to 22 at 12 UTC
rain,

TAF: ENRY 211100Z 2112/2212 20010KT CAVOK BECMG 2121/2123 02005KT TEMPO 2209/2212 RA

Weather observations and forecasts of more than 4000 airports (METAR and TAF reports).

The available stations are represented by yellow and red dots on the map.

Hover mouse over dot to see the name of the station.

Then click to see weather observations and forecasts.

To change the map : click on the green buttons with a black cross to zoom in, on the green button with a dash to zoom out, or on the green arrows for adjacent maps.


METAR-TAF: